Francis, Utah
Current Conditions -  °F | °C
As of 6:53 PM on Friday 31 Oct 2014 (Local Time) from KEVW Reporting Station
Clear Clear  
Wind Chill: 53°   Ceiling: Unl
Heat Index: 53°   Visibility: 10mi
Dew Point: 19°   Wind: 8mph
Humidity: 26%   Direction: 170°S
Pressure: 29.99"   Gusts: NA
Location:  40.8065°N, 110.723°W
Report Text: KEVW 010053Z AUTO 17007KT 10SM CLR 12/M07 A2999 RMK AO2 SLP108 T01171072 TSNO
Loading
Personal Weather Stations






























Interactive Weather Map
Tropical Storm Tracking
New forecast layout! Learn more

10-Day Weather Forecast

Advertisements
Track Severe Weather on mobile